createdAt,value
2019-01-11T00:01:23.448Z,101946.90
2019-01-11T00:03:54.697Z,101948.50
2019-01-11T00:06:25.983Z,101941.08
2019-01-11T00:08:57.323Z,101939.41
2019-01-11T00:11:28.522Z,101931.39
2019-01-11T00:13:59.953Z,101926.98
2019-01-11T00:16:31.335Z,101922.57
2019-01-11T00:19:07.051Z,101924.23
2019-01-11T00:21:35.650Z,101920.01
2019-01-11T00:24:07.152Z,101915.59
2019-01-11T00:26:38.414Z,101917.66
2019-01-11T00:29:09.785Z,101915.13
2019-01-11T00:31:41.067Z,101918.16
2019-01-11T00:34:12.443Z,101917.59
2019-01-11T00:36:43.733Z,101909.15
2019-01-11T00:39:14.924Z,101906.55
2019-01-11T00:41:46.082Z,101904.39
2019-01-11T00:44:17.328Z,101903.52
2019-01-11T00:46:48.520Z,101905.91
2019-01-11T00:49:20.274Z,101900.72
2019-01-11T00:51:51.521Z,101905.34
2019-01-11T00:54:22.748Z,101899.64
2019-01-11T00:56:54.045Z,101902.38
2019-01-11T00:59:25.412Z,101899.42
2019-01-11T01:01:56.692Z,101897.92
2019-01-11T01:04:27.982Z,101895.11
2019-01-11T01:06:59.358Z,101896.56
2019-01-11T01:09:30.621Z,101896.35
2019-01-11T01:12:01.851Z,101899.09
2019-01-11T01:14:33.160Z,101894.07
2019-01-11T01:17:04.801Z,101891.48
2019-01-11T01:19:36.247Z,101900.91
2019-01-11T01:22:07.626Z,101889.51
2019-01-11T01:24:38.947Z,101885.62
2019-01-11T01:27:10.204Z,101881.17
2019-01-11T01:29:41.380Z,101884.85
2019-01-11T01:32:12.617Z,101878.38
2019-01-11T01:34:44.845Z,101886.36
2019-01-11T01:37:16.210Z,101880.09
2019-01-11T01:39:47.484Z,101886.57
2019-01-11T01:42:18.748Z,101878.80
2019-01-11T01:44:50.032Z,101877.30
2019-01-11T01:47:21.427Z,101870.08
2019-01-11T01:49:52.692Z,101873.91
2019-01-11T01:52:24.022Z,101869.46
2019-01-11T01:54:55.235Z,101860.95
2019-01-11T01:57:26.445Z,101868.52
2019-01-11T01:59:57.618Z,101861.97
2019-01-11T02:02:29.142Z,101857.31
2019-01-11T02:05:00.336Z,101863.36
2019-01-11T02:07:33.047Z,101850.70
2019-01-11T02:10:05.436Z,101852.16
2019-01-11T02:12:36.642Z,101851.94
2019-01-11T02:15:09.982Z,101844.88
2019-01-11T02:17:41.571Z,101842.59
2019-01-11T02:20:18.435Z,101840.85
2019-01-11T02:22:49.815Z,101830.42
2019-01-11T02:25:21.225Z,101829.42
2019-01-11T02:27:52.526Z,101824.95
2019-01-11T02:30:24.500Z,101825.80
2019-01-11T02:32:55.906Z,101826.33
2019-01-11T02:35:28.154Z,101812.63
2019-01-11T02:37:59.550Z,101815.15
2019-01-11T02:40:30.837Z,101810.48
2019-01-11T02:43:02.453Z,101806.59
2019-01-11T02:45:34.799Z,101799.74
2019-01-11T02:48:06.106Z,101800.27
2019-01-11T02:50:37.340Z,101791.97
2019-01-11T02:53:08.697Z,101783.97
2019-01-11T02:55:39.883Z,101786.34
2019-01-11T02:58:11.131Z,101774.12
2019-01-11T03:00:43.809Z,101776.34
2019-01-11T03:03:15.046Z,101770.41
2019-01-11T03:05:46.309Z,101767.97
2019-01-11T03:08:17.711Z,101771.86
2019-01-11T03:10:51.783Z,101764.53
2019-01-11T03:13:22.926Z,101764.75
2019-01-11T03:15:54.181Z,101760.02
2019-01-11T03:18:25.497Z,101762.60
2019-01-11T03:20:57.980Z,101750.27
2019-01-11T03:23:29.312Z,101747.68
2019-01-11T03:26:00.508Z,101744.91
2019-01-11T03:28:32.002Z,101739.57
2019-01-11T03:31:11.285Z,101738.28
2019-01-11T03:33:42.546Z,101735.69
2019-01-11T03:36:13.811Z,101732.72
2019-01-11T03:38:45.093Z,101727.91
2019-01-11T03:41:16.346Z,101728.23
2019-01-11T03:43:47.531Z,101722.28
2019-01-11T03:46:18.809Z,101721.13
2019-01-11T03:48:50.090Z,101717.47
2019-01-11T03:51:21.484Z,101708.62
2019-01-11T03:53:52.654Z,101705.28
2019-01-11T03:56:23.881Z,101703.62
2019-01-11T03:58:55.400Z,101702.06
2019-01-11T04:01:26.638Z,101693.39
2019-01-11T04:03:57.828Z,101690.80
2019-01-11T04:06:29.116Z,101677.84
2019-01-11T04:09:00.429Z,101688.21
2019-01-11T04:11:32.938Z,101681.73
2019-01-11T04:14:04.484Z,101678.07
2019-01-11T04:16:35.725Z,101671.30
2019-01-11T04:19:13.506Z,101679.07
2019-01-11T04:22:04.108Z,101669.53
2019-01-11T04:24:47.092Z,101671.27
2019-01-11T04:27:18.392Z,101669.53
2019-01-11T04:29:49.796Z,101659.39
2019-01-11T04:32:21.142Z,101656.10
2019-01-11T04:34:52.358Z,101664.25
2019-01-11T04:37:23.582Z,101651.92
2019-01-11T04:39:54.999Z,101649.19
2019-01-11T04:42:26.324Z,101645.30
2019-01-11T04:44:57.703Z,101639.56
2019-01-11T04:47:28.947Z,101644.00
2019-01-11T04:50:00.312Z,101631.20
2019-01-11T04:52:32.051Z,101637.52
2019-01-11T04:55:05.675Z,101627.16
2019-01-11T04:57:38.492Z,101620.84
2019-01-11T05:00:14.616Z,101609.32
2019-01-11T05:02:47.471Z,101611.14
2019-01-11T05:05:21.797Z,101608.03
2019-01-11T05:07:53.161Z,101605.44
2019-01-11T05:10:24.469Z,101594.30
2019-01-11T05:12:56.647Z,101592.85
2019-01-11T05:15:27.803Z,101583.13
2019-01-11T05:17:59.039Z,101580.20
2019-01-11T05:20:30.339Z,101577.76
2019-01-11T05:23:01.548Z,101578.69
2019-01-11T05:25:32.774Z,101572.91
2019-01-11T05:28:03.996Z,101571.61
2019-01-11T05:30:35.277Z,101562.91
2019-01-11T05:33:06.513Z,101558.80
2019-01-11T05:35:37.764Z,101553.62
2019-01-11T05:38:09.009Z,101549.44
2019-01-11T05:40:40.309Z,101544.27
2019-01-11T05:43:11.651Z,101547.59
2019-01-11T05:45:42.801Z,101547.23
2019-01-11T05:48:14.154Z,101547.38
2019-01-11T05:50:45.316Z,101546.08
2019-01-11T05:53:16.796Z,101544.63
2019-01-11T05:55:49.401Z,101542.97
2019-01-11T05:58:37.852Z,101541.67
2019-01-11T06:01:09.169Z,101540.15
2019-01-11T06:03:40.400Z,101529.38
2019-01-11T06:06:12.342Z,101531.74
2019-01-11T06:08:43.565Z,101532.44
2019-01-11T06:11:14.800Z,101529.84
2019-01-11T06:13:46.005Z,101525.73
2019-01-11T06:16:17.257Z,101531.43
2019-01-11T06:18:48.532Z,101526.11
2019-01-11T06:21:19.899Z,101516.66
2019-01-11T06:23:51.265Z,101518.47
2019-01-11T06:26:22.569Z,101516.66
2019-01-11T06:28:53.765Z,101518.10
2019-01-11T06:31:25.033Z,101518.02
2019-01-11T06:33:56.197Z,101505.75
2019-01-11T06:36:27.562Z,101514.33
2019-01-11T06:38:58.830Z,101509.84
2019-01-11T06:41:39.864Z,101504.14
2019-01-11T06:44:11.126Z,101508.31
2019-01-11T06:46:42.385Z,101502.90
2019-01-11T06:49:13.678Z,101492.91
2019-01-11T06:51:44.892Z,101487.86
2019-01-11T06:54:16.191Z,101490.22
2019-01-11T06:56:47.535Z,101493.19
2019-01-11T06:59:18.761Z,101485.05
2019-01-11T07:01:49.925Z,101489.21
2019-01-11T07:04:21.175Z,101484.30
2019-01-11T07:06:52.416Z,101480.78
2019-01-11T07:09:23.631Z,101477.81
2019-01-11T07:11:54.915Z,101486.34
2019-01-11T07:14:26.283Z,101479.86
2019-01-11T07:16:57.501Z,101483.23
2019-01-11T07:19:28.773Z,101484.34
2019-01-11T07:21:59.994Z,101474.71
2019-01-11T07:24:31.335Z,101471.75
2019-01-11T07:27:02.836Z,101472.78
2019-01-11T07:29:34.158Z,101466.16
2019-01-11T07:32:05.546Z,101462.04
2019-01-11T07:34:36.855Z,101469.44
2019-01-11T07:37:08.148Z,101468.80
2019-01-11T07:39:39.484Z,101463.80
2019-01-11T07:42:10.657Z,101455.47
2019-01-11T07:44:41.972Z,101453.94
2019-01-11T07:47:13.154Z,101455.23
2019-01-11T07:49:45.477Z,101451.11
2019-01-11T07:52:17.033Z,101466.52
2019-01-11T07:54:48.214Z,101464.59
2019-01-11T07:57:19.503Z,101463.75
2019-01-11T07:59:50.713Z,101462.73
2019-01-11T08:02:21.954Z,101462.64
2019-01-11T08:04:53.162Z,101461.66
2019-01-11T08:07:24.562Z,101472.86
2019-01-11T08:09:55.873Z,101471.29
2019-01-11T08:12:27.129Z,101467.13
2019-01-11T08:14:58.345Z,101469.52
2019-01-11T08:17:29.652Z,101471.14
2019-01-11T08:20:00.965Z,101467.90
2019-01-11T08:22:40.974Z,101459.14
2019-01-11T08:25:13.107Z,101461.77
2019-01-11T08:27:45.902Z,101446.31
2019-01-11T08:30:17.097Z,101454.41
2019-01-11T08:32:48.458Z,101456.02
2019-01-11T08:35:19.656Z,101455.23
2019-01-11T08:37:50.923Z,101441.75
2019-01-11T08:40:22.283Z,101441.75
2019-01-11T08:42:53.499Z,101447.21
2019-01-11T08:45:24.745Z,101428.47
2019-01-11T08:47:56.000Z,101440.21
2019-01-11T08:50:27.347Z,101440.21
2019-01-11T08:52:58.578Z,101436.32
2019-01-11T08:55:31.564Z,101439.42
2019-01-11T08:58:02.825Z,101436.97
2019-01-11T09:00:34.084Z,101436.97
2019-01-11T09:03:05.508Z,101434.38
2019-01-11T09:05:36.720Z,101435.67
2019-01-11T09:08:08.030Z,101432.84
2019-01-11T09:10:39.234Z,101425.20
2019-01-11T09:13:10.426Z,101421.30
2019-01-11T09:15:41.713Z,101421.34
2019-01-11T09:18:13.449Z,101431.48
2019-01-11T09:20:44.790Z,101416.73
2019-01-11T09:23:16.033Z,101412.36
2019-01-11T09:25:47.323Z,101416.52
2019-01-11T09:28:18.579Z,101422.39
2019-01-11T09:30:51.229Z,101410.23
2019-01-11T09:33:22.552Z,101398.31
2019-01-11T09:35:53.871Z,101404.15
2019-01-11T09:38:25.096Z,101396.91
2019-01-11T09:40:56.302Z,101393.28
2019-01-11T09:43:27.498Z,101390.71
2019-01-11T09:45:58.954Z,101398.25
2019-01-11T09:48:30.161Z,101396.73
2019-01-11T09:51:01.403Z,101407.07
2019-01-11T09:53:32.576Z,101404.36
2019-01-11T09:56:03.968Z,101404.36
2019-01-11T09:58:36.355Z,101391.77
2019-01-11T10:01:07.754Z,101392.72
2019-01-11T10:03:39.075Z,101375.85
2019-01-11T10:06:10.312Z,101373.42
2019-01-11T10:08:41.617Z,101378.50
2019-01-11T10:11:13.606Z,101371.34
2019-01-11T10:13:44.939Z,101357.22
2019-01-11T10:16:16.175Z,101350.86
2019-01-11T10:18:47.333Z,101350.86
2019-01-11T10:21:22.287Z,101358.55
2019-01-11T10:23:51.434Z,101351.92
2019-01-11T10:26:22.646Z,101349.70
2019-01-11T10:28:53.910Z,101353.77
2019-01-11T10:31:26.222Z,101351.18
2019-01-11T10:33:57.436Z,101348.59
2019-01-11T10:36:29.011Z,101347.17
2019-01-11T10:39:00.400Z,101340.92
2019-01-11T10:41:33.113Z,101332.75
2019-01-11T10:44:04.375Z,101318.37
2019-01-11T10:46:37.845Z,101318.37
2019-01-11T10:49:09.135Z,101322.52
2019-01-11T10:51:40.373Z,101316.66
2019-01-11T10:54:19.798Z,101316.27
2019-01-11T10:56:51.073Z,101315.09
2019-01-11T10:59:22.298Z,101310.06
2019-01-11T11:01:53.512Z,101315.26
2019-01-11T11:04:24.720Z,101296.14
2019-01-11T11:06:56.070Z,101304.06
2019-01-11T11:09:27.662Z,101299.53
2019-01-11T11:11:58.863Z,101298.86
2019-01-11T11:14:30.383Z,101303.81
2019-01-11T11:17:01.583Z,101293.16
2019-01-11T11:19:32.782Z,101294.20
2019-01-11T11:22:04.032Z,101284.44
2019-01-11T11:24:35.348Z,101287.58
2019-01-11T11:27:06.583Z,101286.91
2019-01-11T11:29:37.762Z,101281.45
2019-01-11T11:32:08.914Z,101275.08
2019-01-11T11:34:43.043Z,101266.52
2019-01-11T11:37:17.785Z,101268.45
2019-01-11T11:39:49.246Z,101269.38
2019-01-11T11:42:20.506Z,101257.25
2019-01-11T11:44:51.656Z,101265.05
2019-01-11T11:47:23.113Z,101263.76
2019-01-11T11:49:54.623Z,101253.36
2019-01-11T11:52:25.920Z,101237.64
2019-01-11T11:54:57.125Z,101250.50
2019-01-11T11:57:28.353Z,101248.70
2019-01-11T11:59:59.575Z,101240.37
2019-01-11T12:02:30.881Z,101241.27
2019-01-11T12:05:02.103Z,101241.01
2019-01-11T12:07:33.343Z,101225.56
2019-01-11T12:10:05.336Z,101231.02
2019-01-11T12:12:36.711Z,101232.45
2019-01-11T12:15:08.336Z,101218.77
2019-01-11T12:17:39.658Z,101214.61
2019-01-11T12:20:15.189Z,101205.66
2019-01-11T12:22:46.380Z,101204.61
2019-01-11T12:25:17.656Z,101193.02
2019-01-11T12:27:49.710Z,101184.30
2019-01-11T12:30:21.016Z,101199.14
2019-01-11T12:32:52.539Z,101187.02
2019-01-11T12:35:23.748Z,101182.12
2019-01-11T12:37:55.039Z,101182.62
2019-01-11T12:40:26.228Z,101174.02
2019-01-11T12:42:57.736Z,101169.86
2019-01-11T12:45:28.984Z,101165.81
2019-01-11T12:48:00.202Z,101161.39
2019-01-11T12:50:31.331Z,101154.63
2019-01-11T12:53:02.648Z,101142.66
2019-01-11T12:55:33.792Z,101146.53
2019-01-11T12:58:04.963Z,101144.70
2019-01-11T13:00:36.328Z,101152.48
2019-01-11T13:03:07.518Z,101144.03
2019-01-11T13:05:38.741Z,101140.48
2019-01-11T13:08:10.113Z,101122.80
2019-01-11T13:10:44.726Z,101123.03
2019-01-11T13:13:15.992Z,101120.55
2019-01-11T13:15:47.284Z,101109.64
2019-01-11T13:18:18.563Z,101109.64
2019-01-11T13:20:51.298Z,101096.62
2019-01-11T13:23:24.084Z,101109.75
2019-01-11T13:25:55.235Z,101091.42
2019-01-11T13:28:26.571Z,101101.56
2019-01-11T13:30:57.896Z,101083.99
2019-01-11T13:33:29.443Z,101085.91
2019-01-11T13:36:00.742Z,101086.14
2019-01-11T13:38:33.726Z,101089.02
2019-01-11T13:41:05.214Z,101068.95
2019-01-11T13:43:36.499Z,101070.52
2019-01-11T13:46:07.808Z,101075.95
2019-01-11T13:48:39.052Z,101076.49
2019-01-11T13:51:10.354Z,101076.99
2019-01-11T13:53:41.582Z,101068.64
2019-01-11T13:56:12.840Z,101070.55
2019-01-11T13:58:44.140Z,101066.38
2019-01-11T14:01:15.343Z,101064.16
2019-01-11T14:03:46.509Z,101064.00
2019-01-11T14:06:17.749Z,101061.23
2019-01-11T14:08:48.984Z,101056.14
2019-01-11T14:11:21.306Z,101056.25
2019-01-11T14:13:52.503Z,101060.27
2019-01-11T14:16:23.648Z,101056.24
2019-01-11T14:18:54.966Z,101062.45
2019-01-11T14:21:26.161Z,101060.87
2019-01-11T14:23:57.337Z,101048.11
2019-01-11T14:26:28.572Z,101058.53
2019-01-11T14:28:59.845Z,101053.16
2019-01-11T14:31:31.143Z,101056.26
2019-01-11T14:34:02.389Z,101056.63
2019-01-11T14:36:33.601Z,101055.66
2019-01-11T14:39:08.227Z,101059.02
2019-01-11T14:41:39.584Z,101060.16
2019-01-11T14:44:12.002Z,101059.08
2019-01-11T14:46:43.310Z,101058.03
2019-01-11T14:49:14.537Z,101062.27
2019-01-11T14:51:46.091Z,101055.48
2019-01-11T14:54:17.310Z,101055.88
2019-01-11T14:56:48.516Z,101046.98
2019-01-11T14:59:19.732Z,101045.12
2019-01-11T15:01:51.260Z,101048.98
2019-01-11T15:04:22.671Z,101047.12
2019-01-11T15:06:54.267Z,101048.47
2019-01-11T15:09:25.579Z,101044.11
2019-01-11T15:11:56.788Z,101044.75
2019-01-11T15:14:28.014Z,101042.35
2019-01-11T15:16:59.232Z,101049.79
2019-01-11T15:19:30.482Z,101042.46
2019-01-11T15:22:01.729Z,101033.05
2019-01-11T15:24:33.196Z,101036.97
2019-01-11T15:27:04.602Z,101036.08
2019-01-11T15:29:36.104Z,101026.53
2019-01-11T15:32:07.280Z,101026.14
2019-01-11T15:34:38.514Z,101029.78
2019-01-11T15:37:09.739Z,101017.02
2019-01-11T15:39:40.959Z,101029.67
2019-01-11T15:42:12.152Z,101021.95
2019-01-11T15:44:43.404Z,101024.00
2019-01-11T15:47:14.699Z,101022.41
2019-01-11T15:49:45.938Z,101019.25
2019-01-11T15:52:17.175Z,101024.39
2019-01-11T15:54:48.430Z,101024.32
2019-01-11T15:57:25.188Z,101031.97
2019-01-11T16:00:01.315Z,101024.35
2019-01-11T16:02:33.536Z,101023.79
2019-01-11T16:05:04.988Z,101018.39
2019-01-11T16:07:36.266Z,101025.02
2019-01-11T16:10:12.254Z,101017.92
2019-01-11T16:13:22.131Z,101013.73
2019-01-11T16:16:23.955Z,101012.66
2019-01-11T16:18:56.872Z,100999.44
2019-01-11T16:21:28.149Z,101002.64
2019-01-11T16:23:59.330Z,101008.59
2019-01-11T16:26:30.728Z,101006.61
2019-01-11T16:29:02.024Z,101000.69
2019-01-11T16:31:33.265Z,101004.84
2019-01-11T16:34:04.405Z,101003.34
2019-01-11T16:36:35.868Z,101000.13
2019-01-11T16:39:09.114Z,101004.28
2019-01-11T16:41:40.376Z,100993.13
2019-01-11T16:44:11.609Z,100998.98
2019-01-11T16:46:42.824Z,101000.91
2019-01-11T16:49:14.077Z,100999.81
2019-01-11T16:51:45.306Z,101005.76
2019-01-11T16:54:16.667Z,101004.55
2019-01-11T16:56:47.983Z,101004.37
2019-01-11T16:59:19.235Z,101000.16
2019-01-11T17:01:50.545Z,101004.18
2019-01-11T17:04:21.857Z,101013.95
2019-01-11T17:06:53.121Z,101011.53
2019-01-11T17:09:24.333Z,101018.59
2019-01-11T17:11:55.600Z,101019.58
2019-01-11T17:14:26.882Z,101021.52
2019-01-11T17:16:58.214Z,101025.53
2019-01-11T17:19:29.662Z,101030.08
2019-01-11T17:22:00.817Z,101027.95
2019-01-11T17:24:32.094Z,101025.86
2019-01-11T17:27:03.353Z,101026.78
2019-01-11T17:29:34.531Z,101019.05
2019-01-11T17:32:05.890Z,101021.36
2019-01-11T17:34:37.158Z,101023.55
2019-01-11T17:37:08.330Z,101027.08
2019-01-11T17:39:39.674Z,101029.02
2019-01-11T17:42:10.990Z,101032.12
2019-01-11T17:44:42.294Z,101020.75
2019-01-11T17:47:13.475Z,101032.12
2019-01-11T17:49:44.761Z,101025.09
2019-01-11T17:52:15.942Z,101033.81
2019-01-11T17:54:47.192Z,101030.81
2019-01-11T17:57:18.419Z,101029.60
2019-01-11T17:59:50.670Z,101037.88
2019-01-11T18:02:21.967Z,101040.87
2019-01-11T18:04:53.130Z,101046.20
2019-01-11T18:07:24.417Z,101050.13
2019-01-11T18:09:55.969Z,101039.17
2019-01-11T18:12:27.125Z,101053.41
2019-01-11T18:14:58.548Z,101040.25
2019-01-11T18:17:30.143Z,101045.58
2019-01-11T18:20:01.446Z,101047.59
2019-01-11T18:22:33.871Z,101045.08
2019-01-11T18:25:05.807Z,101046.39
2019-01-11T18:27:37.060Z,101039.33
2019-01-11T18:30:10.393Z,101044.56
2019-01-11T18:32:41.814Z,101030.61
2019-01-11T18:35:13.336Z,101059.26
2019-01-11T18:37:44.789Z,101058.34
2019-01-11T18:40:18.760Z,101047.26
2019-01-11T18:42:50.190Z,101047.26
2019-01-11T18:45:28.384Z,101057.81
2019-01-11T18:47:54.392Z,101059.65
2019-01-11T18:50:25.703Z,101067.98
2019-01-11T18:52:56.887Z,101063.04
2019-01-11T18:55:28.138Z,101063.56
2019-01-11T18:57:59.379Z,101069.58
2019-01-11T19:00:30.860Z,101077.20
2019-01-11T19:03:02.058Z,101071.06
2019-01-11T19:05:33.499Z,101072.27
2019-01-11T19:08:05.037Z,101070.05
2019-01-11T19:10:36.255Z,101073.38
2019-01-11T19:13:07.457Z,101077.30
2019-01-11T19:15:38.736Z,101073.77
2019-01-11T19:18:10.013Z,101076.91
2019-01-11T19:20:41.175Z,101077.78
2019-01-11T19:23:12.523Z,101075.59
2019-01-11T19:25:43.777Z,101071.68
2019-01-11T19:28:15.099Z,101079.38
2019-01-11T19:30:47.483Z,101075.07
2019-01-11T19:33:18.745Z,101076.38
2019-01-11T19:35:50.042Z,101071.55
2019-01-11T19:38:22.327Z,101075.46
2019-01-11T19:40:53.907Z,101068.92
2019-01-11T19:43:25.742Z,101074.68
2019-01-11T19:45:57.123Z,101082.91
2019-01-11T19:48:28.519Z,101079.91
2019-01-11T19:50:59.853Z,101088.66
2019-01-11T19:53:31.306Z,101089.83
2019-01-11T19:56:02.734Z,101083.30
2019-01-11T19:58:34.072Z,101090.36
2019-01-11T20:01:05.694Z,101089.05
2019-01-11T20:03:36.945Z,101093.46
2019-01-11T20:06:08.423Z,101092.58
2019-01-11T20:08:39.982Z,101089.16
2019-01-11T20:11:11.483Z,101087.84
2019-01-11T20:13:42.861Z,101084.22
2019-01-11T20:16:14.429Z,101091.66
2019-01-11T20:18:45.914Z,101090.36
2019-01-11T20:21:17.360Z,101097.81
2019-01-11T20:23:52.746Z,101101.73
2019-01-11T20:26:24.100Z,101097.00
2019-01-11T20:28:55.447Z,101094.28
2019-01-11T20:31:26.793Z,101097.28
2019-01-11T20:33:58.275Z,101094.77
2019-01-11T20:36:32.206Z,101093.89
2019-01-11T20:39:04.665Z,101092.69
2019-01-11T20:41:36.465Z,101097.38
2019-01-11T20:44:08.538Z,101110.45
2019-01-11T20:46:40.488Z,101104.73
2019-01-11T20:49:13.246Z,101110.45
2019-01-11T20:51:44.577Z,101109.95
2019-01-11T20:54:16.095Z,101102.61
2019-01-11T20:56:47.382Z,101103.32
2019-01-11T20:59:18.777Z,101108.55
2019-01-11T21:01:50.177Z,101102.41
2019-01-11T21:04:21.626Z,101100.57
2019-01-11T21:06:53.048Z,101106.33
2019-01-11T21:09:24.361Z,101106.81
2019-01-11T21:11:55.748Z,101113.88
2019-01-11T21:14:27.197Z,101109.86
2019-01-11T21:16:58.521Z,101119.39
2019-01-11T21:19:30.094Z,101117.69
2019-01-11T21:22:01.448Z,101119.39
2019-01-11T21:24:32.974Z,101120.59
2019-01-11T21:27:04.208Z,101125.39
2019-01-11T21:29:35.435Z,101116.05
2019-01-11T21:32:06.749Z,101132.25
2019-01-11T21:34:37.935Z,101121.66
2019-01-11T21:37:09.238Z,101115.02
2019-01-11T21:39:40.538Z,101121.94
2019-01-11T21:42:11.785Z,101124.98
2019-01-11T21:44:42.966Z,101119.75
2019-01-11T21:47:15.203Z,101111.00
2019-01-11T21:49:46.485Z,101121.06
2019-01-11T21:52:17.681Z,101116.72
2019-01-11T21:54:49.358Z,101126.28
2019-01-11T21:57:20.572Z,101131.52
2019-01-11T21:59:51.800Z,101135.43
2019-01-11T22:02:23.074Z,101132.19
2019-01-11T22:04:54.282Z,101126.05
2019-01-11T22:07:25.469Z,101128.66
2019-01-11T22:09:56.734Z,101122.45
2019-01-11T22:12:28.049Z,101124.63
2019-01-11T22:15:00.482Z,101130.95
2019-01-11T22:17:31.840Z,101124.42
2019-01-11T22:20:03.119Z,101118.81
2019-01-11T22:22:34.453Z,101127.95
2019-01-11T22:25:07.171Z,101123.61
2019-01-11T22:27:38.531Z,101138.90
2019-01-11T22:30:18.096Z,101133.28
2019-01-11T22:32:49.392Z,101124.14
2019-01-11T22:35:20.893Z,101124.53
2019-01-11T22:37:52.034Z,101129.75
2019-01-11T22:40:24.072Z,101132.37
2019-01-11T22:42:59.536Z,101129.13
2019-01-11T22:45:30.735Z,101129.94
2019-01-11T22:48:02.075Z,101122.91
2019-01-11T22:50:33.339Z,101132.44
2019-01-11T22:53:04.595Z,101113.91
2019-01-11T22:55:35.855Z,101133.40
2019-01-11T22:58:07.136Z,101134.59
2019-01-11T23:01:16.323Z,101127.86
2019-01-11T23:03:50.587Z,101132.27
2019-01-11T23:07:04.964Z,101133.19
2019-01-11T23:10:04.016Z,101140.64
2019-01-11T23:13:00.938Z,101139.72
2019-01-11T23:15:38.122Z,101146.64
2019-01-11T23:18:29.415Z,101146.25
2019-01-11T23:21:04.212Z,101139.72
2019-01-11T23:23:35.527Z,101132.55
2019-01-11T23:26:06.706Z,101141.59
2019-01-11T23:28:37.901Z,101141.87
2019-01-11T23:31:09.210Z,101140.47
2019-01-11T23:33:40.320Z,101140.47
2019-01-11T23:36:11.500Z,101132.14
2019-01-11T23:38:42.687Z,101139.05
2019-01-11T23:41:14.043Z,101148.69
2019-01-11T23:43:45.229Z,101146.50
2019-01-11T23:46:16.451Z,101149.50
2019-01-11T23:48:47.733Z,101144.27
2019-01-11T23:51:19.032Z,101144.66
2019-01-11T23:53:50.798Z,101145.48
2019-01-11T23:56:22.194Z,101145.86
2019-01-11T23:58:53.546Z,101140.82
